Time;durP1;ratioP1;P1;durP2;ratioP2;P2;SDS_P1;SDS_P2;PMS_P1;PMS_P2;Temp;Humidity;BMP_temperature;BMP_pressure;BME280_temperature;BME280_humidity;BME280_pressure;Samples;Min_cycle;Max_cycle;Signal;HPM_P1;HPM_P2
2023/01/30 00:00:31;;;;;;;1.38;1.13;;;;;;;6.80;100.00;101444.91;5083551;28;20089;-52
2023/01/30 00:02:56;;;;;;;3.20;1.80;;;;;;;6.80;100.00;101437.00;5091958;28;20429;-53
2023/01/30 00:05:21;;;;;;;2.00;1.55;;;;;;;6.71;100.00;101428.16;5088617;28;20039;-53
2023/01/30 00:07:47;;;;;;;1.65;0.75;;;;;;;6.64;100.00;101434.97;5091887;28;20047;-55
2023/01/30 00:10:12;;;;;;;2.67;0.88;;;;;;;6.73;100.00;101434.09;5091425;28;20034;-54
2023/01/30 00:12:38;;;;;;;3.30;0.88;;;;;;;6.75;100.00;101433.97;5087405;28;20032;-55
2023/01/30 00:15:04;;;;;;;2.65;0.60;;;;;;;6.84;100.00;101432.28;5106618;28;20027;-57
2023/01/30 00:17:29;;;;;;;2.95;1.20;;;;;;;6.93;100.00;101436.69;5086382;28;20028;-55
2023/01/30 00:19:55;;;;;;;3.95;1.00;;;;;;;6.93;100.00;101429.59;5089640;28;20107;-53
2023/01/30 00:22:20;;;;;;;2.28;1.02;;;;;;;6.92;100.00;101425.31;5084964;28;20058;-52
2023/01/30 00:24:45;;;;;;;3.58;1.67;;;;;;;7.02;100.00;101427.06;5092079;28;20485;-51
2023/01/30 00:27:11;;;;;;;2.75;1.08;;;;;;;7.17;100.00;101430.91;5093199;28;20037;-55
2023/01/30 00:29:36;;;;;;;1.67;1.13;;;;;;;7.08;100.00;101434.44;5093153;28;20028;-52
2023/01/30 00:32:01;;;;;;;4.05;1.17;;;;;;;7.15;100.00;101431.06;5099422;28;20106;-54
2023/01/30 00:34:27;;;;;;;2.55;1.52;;;;;;;7.19;100.00;101440.34;5084711;28;20031;-56
2023/01/30 00:36:52;;;;;;;4.55;1.80;;;;;;;7.18;100.00;101435.22;5098671;28;20041;-53
2023/01/30 00:39:17;;;;;;;4.47;1.35;;;;;;;7.22;100.00;101431.28;5090891;28;20046;-52
2023/01/30 00:47:10;;;;;;;5.07;1.23;;;;;;;7.28;100.00;101433.38;5085983;28;20046;-50
2023/01/30 00:49:36;;;;;;;2.63;1.88;;;;;;;7.38;100.00;101434.16;5090049;28;20020;-53
2023/01/30 00:52:03;;;;;;;3.70;2.17;;;;;;;7.41;100.00;101431.22;5089442;28;20020;-51
2023/01/30 00:54:29;;;;;;;5.88;2.67;;;;;;;7.45;100.00;101431.75;5085586;28;20032;-54
2023/01/30 00:56:54;;;;;;;6.95;2.78;;;;;;;7.50;100.00;101424.22;5094407;28;20093;-50
2023/01/30 00:59:20;;;;;;;5.30;1.65;;;;;;;7.61;100.00;101428.44;5085580;28;20032;-53
2023/01/30 01:01:45;;;;;;;4.13;1.80;;;;;;;7.73;100.00;101418.53;5092084;28;20026;-53
2023/01/30 01:04:11;;;;;;;6.82;1.88;;;;;;;7.85;100.00;101417.34;5094103;28;20953;-54
2023/01/30 01:06:37;;;;;;;8.55;2.08;;;;;;;7.74;100.00;101393.78;5097961;28;20124;-57
2023/01/30 01:09:03;;;;;;;3.90;2.10;;;;;;;7.79;100.00;101402.91;5090056;28;20027;-54
2023/01/30 01:11:28;;;;;;;2.00;1.50;;;;;;;7.73;100.00;101407.97;5099305;28;20024;-54
2023/01/30 01:13:56;;;;;;;5.72;1.58;;;;;;;7.81;100.00;101410.69;5093710;28;20039;-51
2023/01/30 01:16:23;;;;;;;4.90;1.55;;;;;;;7.90;100.00;101401.88;5095315;28;20115;-56
2023/01/30 01:18:48;;;;;;;16.30;2.53;;;;;;;7.93;100.00;101395.47;5082630;28;20032;-53
2023/01/30 01:21:14;;;;;;;11.73;2.25;;;;;;;7.75;100.00;101374.34;5087886;28;20040;-54
2023/01/30 01:23:40;;;;;;;2.60;0.90;;;;;;;7.69;100.00;101374.91;5082422;28;20308;-54
2023/01/30 01:26:05;;;;;;;1.92;1.25;;;;;;;7.55;100.00;101374.47;5084514;28;20028;-55
2023/01/30 01:28:30;;;;;;;3.25;1.25;;;;;;;7.72;100.00;101364.91;5085233;28;20040;-54
2023/01/30 01:30:56;;;;;;;4.72;1.17;;;;;;;7.88;100.00;101366.03;5082070;28;20082;-55
2023/01/30 01:33:25;;;;;;;4.38;1.15;;;;;;;7.98;100.00;101343.84;5082726;28;20060;-56
2023/01/30 01:35:54;;;;;;;2.58;1.42;;;;;;;8.01;100.00;101335.59;5086244;28;20032;-52
2023/01/30 01:38:20;;;;;;;3.17;0.93;;;;;;;7.94;100.00;101339.84;5086559;28;20534;-53
2023/01/30 01:43:34;;;;;;;5.88;1.10;;;;;;;8.14;100.00;101347.59;5083065;28;20124;-55
2023/01/30 01:46:27;;;;;;;1.13;0.85;;;;;;;8.27;100.00;101351.47;5100191;28;20077;-54
2023/01/30 01:48:56;;;;;;;0.90;0.63;;;;;;;8.57;100.00;101351.19;5091179;28;20059;-52
2023/01/30 01:51:36;;;;;;;2.17;0.40;;;;;;;8.66;100.00;101348.44;5095038;28;20101;-54
2023/01/30 01:54:10;;;;;;;2.35;0.95;;;;;;;8.61;100.00;101345.44;5086493;28;20404;-52
2023/01/30 01:56:40;;;;;;;2.65;0.63;;;;;;;8.72;100.00;101342.53;5087277;28;20093;-57
2023/01/30 01:59:31;;;;;;;2.13;0.22;;;;;;;8.74;100.00;101350.31;5081967;28;20032;-56
2023/01/30 02:02:02;;;;;;;2.93;0.73;;;;;;;8.64;100.00;101346.94;5088534;28;20027;-51
2023/01/30 02:07:18;;;;;;;1.33;0.80;;;;;;;8.63;100.00;101354.06;5088839;28;20046;-50
2023/01/30 02:09:44;;;;;;;8.43;0.50;;;;;;;8.71;100.00;101361.19;5085959;28;20480;-55
2023/01/30 02:12:11;;;;;;;3.97;0.95;;;;;;;8.77;100.00;101354.44;5095025;28;20028;-54
2023/01/30 02:14:37;;;;;;;2.20;0.85;;;;;;;8.75;100.00;101354.59;5093187;28;20062;-53
2023/01/30 02:17:03;;;;;;;1.65;0.20;;;;;;;8.75;100.00;101357.22;5095008;28;20057;-55
2023/01/30 02:19:47;;;;;;;7.55;0.82;;;;;;;8.77;100.00;101347.34;5090965;28;20482;-52
2023/01/30 02:22:50;;;;;;;3.00;0.60;;;;;;;8.64;100.00;101354.88;5093214;28;20028;-49
2023/01/30 02:25:16;;;;;;;3.33;0.35;;;;;;;8.78;100.00;101358.72;5082726;28;20546;-50
2023/01/30 02:27:44;;;;;;;5.88;0.68;;;;;;;8.71;100.00;101355.91;5086986;28;20115;-49
2023/01/30 02:30:36;;;;;;;1.15;0.22;;;;;;;8.67;100.00;101354.56;5091584;28;20370;-51
2023/01/30 02:34:00;;;;;;;3.03;0.30;;;;;;;8.68;100.00;101361.53;5087235;28;20028;-49
2023/01/30 02:36:48;;;;;;;3.40;0.35;;;;;;;8.71;100.00;101363.84;5070004;28;20039;-54
2023/01/30 02:39:37;;;;;;;5.70;0.20;;;;;;;8.64;100.00;101354.88;5093671;28;20039;-54
2023/01/30 02:42:28;;;;;;;5.55;0.75;;;;;;;8.59;100.00;101370.38;5090441;28;20039;-50
2023/01/30 02:45:07;;;;;;;8.57;0.90;;;;;;;8.67;100.00;101376.56;5090990;28;20031;-53
2023/01/30 02:47:57;;;;;;;4.60;0.45;;;;;;;8.72;100.00;101378.72;5089686;28;20426;-50
2023/01/30 02:50:32;;;;;;;1.70;0.17;;;;;;;8.77;100.00;101376.41;5092236;28;20476;-53
2023/01/30 02:52:57;;;;;;;1.23;0.20;;;;;;;8.80;100.00;101376.09;5096754;28;20369;-55
2023/01/30 02:55:26;;;;;;;1.95;0.38;;;;;;;8.76;100.00;101380.06;5089601;28;20028;-53
2023/01/30 02:57:51;;;;;;;0.63;0.22;;;;;;;8.68;100.00;101378.19;5085639;28;20025;-53
2023/01/30 03:01:02;;;;;;;0.85;0.40;;;;;;;8.76;100.00;101377.41;5092963;28;20083;-50
2023/01/30 03:03:42;;;;;;;5.80;1.02;;;;;;;8.69;100.00;101379.03;5078432;28;20504;-52
2023/01/30 03:06:45;;;;;;;3.80;0.73;;;;;;;8.73;100.00;101378.56;5092863;28;20039;-51
2023/01/30 03:09:32;;;;;;;4.45;0.32;;;;;;;8.76;100.00;101395.09;5094036;28;20032;-50
2023/01/30 03:12:42;;;;;;;1.42;0.30;;;;;;;8.70;100.00;101386.00;5089048;28;20020;-49
2023/01/30 03:15:25;;;;;;;2.33;0.22;;;;;;;8.68;100.00;101393.25;5080321;28;20079;-54
2023/01/30 03:17:51;;;;;;;2.33;0.10;;;;;;;8.60;100.00;101387.91;5075353;28;20032;-54
2023/01/30 03:20:19;;;;;;;1.27;0.22;;;;;;;8.64;100.00;101398.00;5093538;28;20059;-54
2023/01/30 03:22:44;;;;;;;2.55;0.20;;;;;;;8.60;100.00;101387.91;5090697;28;20042;-55
2023/01/30 03:25:14;;;;;;;3.55;0.40;;;;;;;8.52;100.00;101405.38;5093198;28;20377;-57
2023/01/30 03:27:39;;;;;;;2.00;0.75;;;;;;;8.35;100.00;101397.44;5089844;28;20138;-55
2023/01/30 03:30:05;;;;;;;2.58;1.00;;;;;;;8.34;100.00;101407.19;5086363;28;20407;-51
2023/01/30 03:32:31;;;;;;;1.23;0.40;;;;;;;8.29;100.00;101405.00;5098525;28;20026;-54
2023/01/30 03:34:56;;;;;;;0.68;0.20;;;;;;;8.18;100.00;101396.47;5078319;28;20642;-53
2023/01/30 03:37:21;;;;;;;2.55;0.20;;;;;;;8.01;100.00;101391.06;5089564;28;20374;-57
2023/01/30 03:39:47;;;;;;;3.75;0.40;;;;;;;7.87;100.00;101396.88;5084855;28;20400;-52
2023/01/30 03:42:12;;;;;;;1.45;0.73;;;;;;;7.85;100.00;101404.97;5086340;28;20087;-52
2023/01/30 03:44:37;;;;;;;14.45;0.65;;;;;;;7.90;100.00;101398.38;5087351;28;20463;-54
2023/01/30 03:47:03;;;;;;;1.20;0.75;;;;;;;7.74;100.00;101405.16;5093287;28;20028;-53
2023/01/30 03:49:28;;;;;;;1.83;0.40;;;;;;;7.57;100.00;101401.53;5098632;28;20425;-53
2023/01/30 03:51:53;;;;;;;16.42;2.25;;;;;;;7.70;100.00;101409.09;5089378;28;20035;-56
2023/01/30 03:54:19;;;;;;;1.60;0.30;;;;;;;7.69;100.00;101411.88;5097272;28;20997;-54
2023/01/30 03:56:44;;;;;;;3.35;1.55;;;;;;;7.59;100.00;101415.44;5089496;28;20032;-54
2023/01/30 03:59:09;;;;;;;2.60;0.22;;;;;;;7.40;100.00;101408.44;5090890;28;20470;-55
2023/01/30 04:01:35;;;;;;;1.38;0.08;;;;;;;7.28;100.00;101412.28;5092019;28;20028;-51
2023/01/30 04:04:00;;;;;;;5.03;0.63;;;;;;;7.22;100.00;101416.28;5090359;27;20080;-57
2023/01/30 04:06:25;;;;;;;3.30;0.47;;;;;;;7.33;100.00;101428.50;5088014;28;20028;-57
2023/01/30 04:08:52;;;;;;;1.05;0.38;;;;;;;7.55;100.00;101429.88;5094205;27;20020;-57
2023/01/30 04:11:18;;;;;;;1.20;0.45;;;;;;;7.68;100.00;101444.53;5092991;28;20032;-51
2023/01/30 04:13:43;;;;;;;3.40;1.90;;;;;;;7.74;100.00;101436.00;5088310;28;20085;-58
2023/01/30 04:16:25;;;;;;;2.92;1.45;;;;;;;7.65;100.00;101443.03;5088903;28;20028;-54
2023/01/30 04:18:51;;;;;;;0.93;0.30;;;;;;;7.55;100.00;101440.44;5078084;28;20046;-54
2023/01/30 04:21:16;;;;;;;0.28;0.17;;;;;;;7.44;100.00;101443.28;5084494;28;20397;-54
2023/01/30 04:23:42;;;;;;;3.40;0.85;;;;;;;7.49;100.00;101459.50;5081798;28;20026;-55
2023/01/30 04:26:08;;;;;;;2.33;1.67;;;;;;;7.47;100.00;101463.28;5084314;28;20500;-56
2023/01/30 04:28:34;;;;;;;8.13;1.83;;;;;;;7.55;100.00;101458.91;5087715;28;20027;-57
2023/01/30 04:30:59;;;;;;;1.63;0.20;;;;;;;7.50;100.00;101455.88;5089275;28;20032;-51
2023/01/30 04:33:25;;;;;;;3.65;1.10;;;;;;;7.41;100.00;101467.34;5086913;28;20543;-52
2023/01/30 04:36:00;;;;;;;1.27;0.30;;;;;;;7.38;100.00;101467.59;5089546;28;20032;-53
2023/01/30 04:38:27;;;;;;;2.75;0.32;;;;;;;7.40;100.00;101460.38;5082132;28;20115;-56
2023/01/30 04:40:55;;;;;;;1.75;0.20;;;;;;;7.41;100.00;101457.59;5090778;28;20084;-53
2023/01/30 04:43:21;;;;;;;1.20;0.88;;;;;;;7.49;100.00;101459.50;5077574;28;20048;-55
2023/01/30 04:45:48;;;;;;;6.53;2.28;;;;;;;7.43;100.00;101468.00;5089776;28;20528;-52
2023/01/30 04:48:14;;;;;;;4.10;0.85;;;;;;;7.39;100.00;101471.91;5084180;28;20036;-54
2023/01/30 04:50:41;;;;;;;1.65;0.38;;;;;;;7.56;100.00;101484.34;5079660;28;20043;-55
2023/01/30 04:53:07;;;;;;;4.80;0.65;;;;;;;7.61;100.00;101482.06;5077391;28;20036;-51
2023/01/30 04:55:32;;;;;;;1.55;0.20;;;;;;;7.65;100.00;101485.25;5089659;28;20457;-54
2023/01/30 04:57:58;;;;;;;1.02;0.20;;;;;;;7.61;100.00;101487.34;5085639;28;20054;-53
2023/01/30 05:00:24;;;;;;;0.77;0.20;;;;;;;7.51;100.00;101493.66;5087041;28;20381;-56
2023/01/30 05:02:49;;;;;;;0.75;0.50;;;;;;;7.42;100.00;101490.91;5086787;28;20027;-55
2023/01/30 05:05:15;;;;;;;3.17;0.47;;;;;;;7.47;100.00;101503.69;5086946;28;20032;-55
2023/01/30 05:07:40;;;;;;;4.47;1.10;;;;;;;7.49;100.00;101495.63;5085571;28;20135;-56
2023/01/30 05:10:06;;;;;;;2.83;0.17;;;;;;;7.60;100.00;101509.44;5084414;28;20216;-50
2023/01/30 05:12:31;;;;;;;2.42;0.20;;;;;;;7.69;100.00;101509.53;5087235;28;20032;-57
2023/01/30 05:14:56;;;;;;;0.73;0.05;;;;;;;7.72;100.00;101504.81;5085387;28;20031;-54
2023/01/30 05:17:22;;;;;;;1.02;0.32;;;;;;;7.81;100.00;101506.56;5093557;28;20073;-57
2023/01/30 05:19:47;;;;;;;1.45;0.20;;;;;;;8.00;100.00;101507.41;5085560;28;20047;-55
2023/01/30 05:22:13;;;;;;;4.65;0.63;;;;;;;8.08;100.00;101505.72;5088341;28;20072;-55
2023/01/30 05:24:38;;;;;;;9.35;0.65;;;;;;;8.29;100.00;101497.50;5090495;28;20027;-53
2023/01/30 05:27:03;;;;;;;2.83;0.25;;;;;;;8.34;100.00;101494.41;5085120;28;20036;-57
2023/01/30 05:29:29;;;;;;;1.15;0.32;;;;;;;8.34;100.00;101494.41;5084572;28;20023;-52
2023/01/30 05:31:54;;;;;;;0.63;0.30;;;;;;;8.34;100.00;101494.41;5083234;28;20083;-54
2023/01/30 05:34:20;;;;;;;2.65;0.35;;;;;;;8.41;100.00;101492.81;5086435;28;20115;-56
2023/01/30 05:36:45;;;;;;;1.75;1.38;;;;;;;8.41;100.00;101492.81;5083397;28;20028;-56
2023/01/30 05:39:11;;;;;;;6.53;0.50;;;;;;;8.37;100.00;101496.72;5084381;28;20114;-53
2023/01/30 05:41:36;;;;;;;4.47;0.70;;;;;;;8.41;100.00;101506.03;5084479;28;20028;-54
2023/01/30 05:44:01;;;;;;;0.60;0.17;;;;;;;8.32;100.00;101498.16;5088119;28;20039;-54
2023/01/30 05:46:27;;;;;;;2.78;0.30;;;;;;;8.41;100.00;101499.91;5094530;28;20032;-53
2023/01/30 05:48:52;;;;;;;4.60;0.50;;;;;;;8.38;100.00;101516.06;5090316;28;20055;-53
2023/01/30 05:51:20;;;;;;;3.70;0.55;;;;;;;8.29;100.00;101515.97;5093990;28;20476;-52
2023/01/30 05:53:46;;;;;;;5.30;1.38;;;;;;;8.20;100.00;101505.47;5086601;28;20384;-50
2023/01/30 05:56:11;;;;;;;3.75;0.30;;;;;;;8.24;100.00;101507.69;5081969;28;20039;-55
2023/01/30 05:58:37;;;;;;;7.78;0.75;;;;;;;8.01;100.00;101509.09;5096194;28;20031;-55
2023/01/30 06:01:05;;;;;;;1.85;1.20;;;;;;;8.01;100.00;101506.47;5085530;28;20122;-56
2023/01/30 06:03:30;;;;;;;9.15;1.67;;;;;;;7.91;100.00;101505.69;5086715;28;20035;-53
2023/01/30 06:05:56;;;;;;;4.53;0.40;;;;;;;7.78;100.00;101509.50;5085651;28;20036;-53
2023/01/30 06:08:21;;;;;;;6.25;0.45;;;;;;;7.66;100.00;101518.59;5096115;28;20028;-56
2023/01/30 06:10:47;;;;;;;5.47;0.20;;;;;;;7.56;100.00;101518.66;5091092;28;20024;-53
2023/01/30 06:13:12;;;;;;;1.77;0.63;;;;;;;7.42;100.00;101516.47;5093601;28;20481;-52
2023/01/30 06:15:38;;;;;;;3.25;0.63;;;;;;;7.42;100.00;101527.03;5088854;28;20496;-54
2023/01/30 06:18:03;;;;;;;4.90;0.20;;;;;;;7.25;100.00;101525.16;5087713;28;20111;-51
2023/01/30 06:20:29;;;;;;;3.47;1.15;;;;;;;7.07;100.00;101517.97;5080086;28;20500;-52
2023/01/30 06:22:54;;;;;;;10.02;0.80;;;;;;;7.02;100.00;101516.72;5084744;28;20032;-54
2023/01/30 06:25:19;;;;;;;3.70;0.50;;;;;;;6.91;100.00;101512.47;5090660;28;20484;-50
2023/01/30 06:27:45;;;;;;;2.08;0.75;;;;;;;6.88;100.00;101507.47;5091556;28;20080;-57
2023/01/30 06:30:11;;;;;;;2.10;0.57;;;;;;;6.79;100.00;101522.34;5092542;28;20038;-54
2023/01/30 06:32:37;;;;;;;7.68;0.68;;;;;;;6.77;100.00;101522.47;5093433;28;20035;-56
2023/01/30 06:35:03;;;;;;;1.65;0.35;;;;;;;6.83;100.00;101514.97;5089278;28;20028;-55
2023/01/30 06:37:28;;;;;;;0.98;0.05;;;;;;;6.56;100.00;101524.44;5099221;28;20022;-55
2023/01/30 06:39:53;;;;;;;1.80;0.75;;;;;;;6.43;100.00;101523.84;5097458;28;20027;-52
2023/01/30 06:42:18;;;;;;;7.10;0.63;;;;;;;6.39;100.00;101536.50;5093638;28;20402;-51
2023/01/30 06:44:44;;;;;;;8.40;0.25;;;;;;;6.25;100.00;101536.91;5096143;28;20511;-53
2023/01/30 06:47:09;;;;;;;4.28;0.08;;;;;;;6.07;100.00;101544.63;5101666;28;20102;-54
2023/01/30 06:49:34;;;;;;;4.38;0.95;;;;;;;5.79;100.00;101544.38;5085671;28;20493;-50
2023/01/30 06:52:00;;;;;;;8.68;0.30;;;;;;;5.64;100.00;101549.19;5100962;28;20460;-55
2023/01/30 06:54:25;;;;;;;7.07;0.47;;;;;;;5.44;100.00;101547.44;5096791;27;20053;-53
2023/01/30 06:56:50;;;;;;;5.13;0.68;;;;;;;5.23;100.00;101550.09;5092040;28;20530;-54
2023/01/30 06:59:16;;;;;;;1.67;0.20;;;;;;;5.18;100.00;101558.34;5087633;28;20050;-57
2023/01/30 07:01:41;;;;;;;2.92;0.20;;;;;;;5.16;100.00;101562.94;5082420;28;20469;-56
2023/01/30 07:04:07;;;;;;;5.90;1.45;;;;;;;5.30;100.00;101566.19;5079458;28;20028;-54
2023/01/30 07:06:32;;;;;;;1.30;0.55;;;;;;;5.29;100.00;101570.59;5086766;28;20435;-54
2023/01/30 07:08:57;;;;;;;2.50;0.30;;;;;;;5.24;100.00;101578.91;5079286;28;20032;-55
2023/01/30 07:11:24;;;;;;;6.32;0.45;;;;;;;5.44;100.00;101577.19;5077000;28;20021;-55
2023/01/30 07:13:49;;;;;;;1.67;0.95;;;;;;;5.40;100.00;101572.34;5081836;28;20025;-57
2023/01/30 07:16:14;;;;;;;5.10;0.75;;;;;;;5.43;100.00;101569.44;5078466;28;20035;-54
2023/01/30 07:18:40;;;;;;;4.60;0.45;;;;;;;5.53;100.00;101580.03;5079504;28;20058;-54
2023/01/30 07:21:05;;;;;;;0.32;0.20;;;;;;;5.54;100.00;101590.41;5079229;28;20059;-55
2023/01/30 07:23:30;;;;;;;2.25;0.08;;;;;;;5.56;100.00;101599.00;5079460;28;20461;-55
2023/01/30 07:25:56;;;;;;;6.15;1.73;;;;;;;5.34;100.00;101596.50;5078251;28;20523;-53
2023/01/30 07:28:21;;;;;;;1.98;0.35;;;;;;;5.09;100.00;101610.91;5082423;28;20051;-57
2023/01/30 07:30:48;;;;;;;2.20;0.52;;;;;;;4.81;100.00;101621.06;5077130;28;20488;-55
2023/01/30 07:33:14;;;;;;;4.57;1.02;;;;;;;4.70;100.00;101616.69;5083030;28;20036;-51
2023/01/30 07:35:39;;;;;;;2.35;0.45;;;;;;;4.74;100.00;101620.72;5085525;28;20097;-55
2023/01/30 07:38:05;;;;;;;5.57;0.63;;;;;;;4.76;100.00;101636.34;5081403;28;20072;-52
2023/01/30 07:40:30;;;;;;;3.95;1.48;;;;;;;4.76;100.00;101639.00;5081491;28;20073;-55
2023/01/30 07:43:01;;;;;;;4.35;0.50;;;;;;;4.78;100.00;101647.59;5088407;28;20044;-53
2023/01/30 07:45:33;;;;;;;3.92;0.28;;;;;;;4.94;100.00;101655.88;5081857;28;20256;-56
2023/01/30 07:47:58;;;;;;;4.15;0.25;;;;;;;4.98;100.00;101636.28;5083616;28;20050;-55
2023/01/30 07:50:23;;;;;;;1.73;1.35;;;;;;;4.95;100.00;101631.25;5075963;28;20028;-51
2023/01/30 07:52:49;;;;;;;12.65;2.30;;;;;;;4.81;100.00;101629.75;5077782;28;20024;-54
2023/01/30 07:55:14;;;;;;;2.80;0.30;;;;;;;4.94;100.00;101634.84;5077228;28;20029;-50
2023/01/30 07:57:40;;;;;;;5.32;0.10;;;;;;;5.01;100.00;101630.78;5077881;28;20461;-54
2023/01/30 08:00:06;;;;;;;9.45;1.33;;;;;;;5.06;100.00;101645.31;5079080;28;20040;-54
2023/01/30 08:02:31;;;;;;;4.90;0.35;;;;;;;4.96;100.00;101640.00;5077945;28;20040;-55
2023/01/30 08:04:57;;;;;;;1.25;0.00;;;;;;;5.00;100.00;101644.03;5078262;28;20032;-51
2023/01/30 08:07:22;;;;;;;2.70;0.40;;;;;;;5.16;100.00;101643.59;5082146;28;20105;-52
2023/01/30 08:09:47;;;;;;;4.80;0.50;;;;;;;5.35;100.00;101650.81;5082802;28;20144;-53
2023/01/30 08:12:13;;;;;;;2.47;0.40;;;;;;;5.44;100.00;101656.09;5077424;28;20032;-53
2023/01/30 08:14:38;;;;;;;4.15;0.28;;;;;;;5.47;100.00;101674.28;5077606;28;20023;-53
2023/01/30 08:17:04;;;;;;;3.92;0.38;;;;;;;5.75;100.00;101673.72;5084046;28;20104;-56
2023/01/30 08:19:29;;;;;;;2.33;0.20;;;;;;;5.84;100.00;101676.44;5089338;28;20169;-56
2023/01/30 08:21:55;;;;;;;7.55;1.73;;;;;;;5.82;100.00;101675.72;5085677;28;20534;-56
2023/01/30 08:24:20;;;;;;;0.52;0.10;;;;;;;5.89;100.00;101679.50;5084205;28;20046;-50
2023/01/30 08:26:48;;;;;;;3.15;2.25;;;;;;;6.01;100.00;101687.34;5081019;28;20070;-56
2023/01/30 08:29:13;;;;;;;7.22;1.23;;;;;;;6.15;100.00;101694.91;5079350;28;20535;-52
2023/01/30 08:31:38;;;;;;;3.90;1.42;;;;;;;6.27;100.00;101693.84;5083777;28;20115;-54
2023/01/30 08:34:04;;;;;;;1.52;0.22;;;;;;;6.36;100.00;101691.38;5073511;28;20117;-54
2023/01/30 08:36:29;;;;;;;7.82;1.15;;;;;;;6.39;100.00;101691.09;5077529;28;20032;-54
2023/01/30 08:38:54;;;;;;;5.43;0.60;;;;;;;6.33;100.00;101698.56;5083175;28;20039;-54
2023/01/30 08:41:20;;;;;;;4.60;0.57;;;;;;;6.27;100.00;101703.50;5077978;28;20055;-54
2023/01/30 08:43:45;;;;;;;11.20;1.13;;;;;;;6.19;100.00;101705.97;5094513;28;20134;-54
2023/01/30 08:46:10;;;;;;;6.95;0.90;;;;;;;6.23;100.00;101708.22;5083391;28;20111;-55
2023/01/30 08:48:39;;;;;;;11.73;0.93;;;;;;;6.19;100.00;101721.78;5081238;28;20845;-54
2023/01/30 08:51:05;;;;;;;3.78;0.98;;;;;;;6.18;100.00;101712.22;5076728;28;20047;-56
2023/01/30 08:53:30;;;;;;;3.00;0.50;;;;;;;6.32;100.00;101707.44;5077111;28;20055;-55
2023/01/30 08:55:55;;;;;;;4.18;0.73;;;;;;;6.37;100.00;101700.94;5076851;28;20024;-53
2023/01/30 08:58:21;;;;;;;6.25;1.55;;;;;;;6.32;100.00;101710.06;5077065;28;20173;-54
2023/01/30 09:00:48;;;;;;;3.55;0.60;;;;;;;6.24;100.00;101699.34;5076030;28;20496;-53
2023/01/30 09:03:14;;;;;;;5.45;0.38;;;;;;;6.27;100.00;101704.38;5078278;28;20039;-50
2023/01/30 09:05:39;;;;;;;8.40;0.75;;;;;;;6.26;100.00;101697.41;5078992;28;20032;-54
2023/01/30 09:08:04;;;;;;;3.45;1.20;;;;;;;6.31;100.00;101695.22;5075051;28;20143;-54
2023/01/30 09:10:30;;;;;;;5.55;1.17;;;;;;;6.18;100.00;101699.88;5085972;28;20046;-54
2023/01/30 09:12:55;;;;;;;4.78;1.67;;;;;;;6.18;100.00;101726.22;5083527;28;20058;-52
2023/01/30 09:15:20;;;;;;;0.52;0.35;;;;;;;6.26;100.00;101725.56;5083291;28;20028;-54
2023/01/30 09:17:46;;;;;;;6.40;0.82;;;;;;;6.34;100.00;101731.00;5081117;28;20028;-50
2023/01/30 09:20:11;;;;;;;8.85;0.63;;;;;;;6.41;100.00;101737.41;5081141;28;20036;-52
2023/01/30 09:22:37;;;;;;;2.00;0.10;;;;;;;6.44;100.00;101736.31;5093496;28;20035;-56
2023/01/30 09:25:03;;;;;;;6.75;1.42;;;;;;;6.47;100.00;101725.50;5086848;28;20028;-52
2023/01/30 09:27:29;;;;;;;6.18;0.65;;;;;;;6.55;100.00;101721.22;5096774;28;20054;-51
2023/01/30 09:29:55;;;;;;;5.20;0.70;;;;;;;6.67;100.00;101715.84;5074074;28;20033;-56
2023/01/30 09:32:20;;;;;;;7.88;0.38;;;;;;;6.62;100.00;101711.00;5090614;28;20036;-52
2023/01/30 09:34:45;;;;;;;5.57;2.35;;;;;;;6.73;100.00;101717.94;5085284;28;20549;-52
2023/01/30 09:37:11;;;;;;;6.38;0.30;;;;;;;6.82;100.00;101718.94;5077484;28;20036;-52
2023/01/30 09:39:36;;;;;;;13.45;1.58;;;;;;;6.90;100.00;101721.72;5087511;28;20024;-50
2023/01/30 09:42:04;;;;;;;3.55;0.40;;;;;;;6.94;100.00;101717.84;5083001;28;20033;-55
2023/01/30 09:44:41;;;;;;;4.50;0.43;;;;;;;6.99;100.00;101727.00;5081938;28;20032;-52
2023/01/30 09:47:12;;;;;;;3.53;1.15;;;;;;;7.05;100.00;101719.50;5095964;28;20653;-52
2023/01/30 09:49:55;;;;;;;10.32;1.77;;;;;;;7.15;100.00;101721.22;5086588;28;20416;-52
2023/01/30 09:52:53;;;;;;;4.75;0.40;;;;;;;7.16;100.00;101725.50;5092299;28;20306;-52
2023/01/30 09:55:24;;;;;;;17.10;2.40;;;;;;;7.31;100.00;101722.47;5085995;28;20055;-52
2023/01/30 09:57:50;;;;;;;;;;;;;;;7.27;100.00;101728.97;5097365;28;20025;-56
2023/01/30 10:00:34;;;;;;;5.93;0.57;;;;;;;7.19;100.00;101727.84;5080748;28;19927;-53
2023/01/30 10:03:21;;;;;;;12.38;1.02;;;;;;;7.34;100.00;101735.38;5086394;28;20025;-49
2023/01/30 10:05:53;;;;;;;8.45;0.35;;;;;;;7.04;100.00;101729.22;5093268;28;20507;-54
2023/01/30 10:08:34;;;;;;;4.47;0.20;;;;;;;6.92;100.00;101730.34;5092755;28;20041;-53
2023/01/30 10:11:11;;;;;;;2.05;0.73;;;;;;;6.93;100.00;101735.47;5076538;28;20058;-52
2023/01/30 10:13:58;;;;;;;4.22;0.50;;;;;;;7.04;100.00;101726.59;5094125;28;20361;-54
2023/01/30 10:16:31;;;;;;;4.07;0.40;;;;;;;7.08;100.00;101735.09;5087055;28;20032;-55
2023/01/30 10:19:18;;;;;;;2.45;0.57;;;;;;;7.18;100.00;101747.31;5084159;27;20039;-51
2023/01/30 10:21:46;;;;;;;6.53;1.23;;;;;;;7.35;100.00;101758.13;5077656;28;20394;-54
2023/01/30 10:24:50;;;;;;;6.10;1.48;;;;;;;7.59;100.00;101769.13;5074247;28;20036;-56
2023/01/30 10:27:18;;;;;;;3.45;1.23;;;;;;;7.69;100.00;101760.34;5078908;28;20033;-52
2023/01/30 10:29:55;;;;;;;4.50;0.63;;;;;;;7.92;100.00;101758.22;5099341;28;20491;-53
2023/01/30 10:32:30;;;;;;;10.45;1.20;;;;;;;8.11;100.00;101754.72;5085661;28;20040;-53
2023/01/30 10:35:03;;;;;;;6.32;1.20;;;;;;;8.28;100.00;101761.88;5078289;28;20028;-53
2023/01/30 10:37:34;;;;;;;7.97;1.85;;;;;;;8.24;100.00;101765.78;5077164;28;20032;-52
2023/01/30 10:40:38;;;;;;;6.28;1.45;;;;;;;8.29;100.00;101753.81;5098862;28;20062;-55
2023/01/30 10:43:22;;;;;;;11.23;1.52;;;;;;;8.25;100.00;101756.88;5079463;28;20089;-49
2023/01/30 10:46:14;;;;;;;7.70;0.47;;;;;;;8.39;100.00;101752.91;5083073;28;20084;-54
2023/01/30 10:48:53;;;;;;;7.78;0.40;;;;;;;8.61;100.00;101751.75;5078861;28;20032;-53
2023/01/30 10:51:31;;;;;;;4.28;0.63;;;;;;;8.71;100.00;101755.19;5089395;28;20040;-53
2023/01/30 10:54:12;;;;;;;3.90;0.57;;;;;;;8.77;100.00;101765.16;5078033;28;20431;-50
2023/01/30 10:56:49;;;;;;;2.88;0.60;;;;;;;8.82;100.00;101770.00;5074528;28;20031;-51
2023/01/30 10:59:33;;;;;;;4.13;1.45;;;;;;;8.76;100.00;101779.38;5081074;28;20042;-52
2023/01/30 11:02:15;;;;;;;2.50;0.80;;;;;;;8.82;100.00;101783.22;5079640;28;20032;-56
2023/01/30 11:04:55;;;;;;;9.40;0.80;;;;;;;8.97;100.00;101780.91;5074126;28;20390;-51
2023/01/30 11:07:20;;;;;;;4.95;1.20;;;;;;;9.06;100.00;101761.50;5077812;28;20067;-53
2023/01/30 11:09:47;;;;;;;5.95;0.63;;;;;;;9.07;100.00;101776.41;5073297;28;20508;-51
2023/01/30 11:12:14;;;;;;;14.20;1.13;;;;;;;9.01;100.00;101784.91;5085045;28;20119;-53
2023/01/30 11:14:59;;;;;;;4.32;1.13;;;;;;;8.89;100.00;101774.56;5088245;28;20430;-52
2023/01/30 11:17:33;;;;;;;3.97;0.30;;;;;;;8.86;100.00;101777.50;5081088;28;20609;-54
2023/01/30 11:20:05;;;;;;;8.88;1.25;;;;;;;8.83;100.00;101777.81;5099630;28;20472;-52
2023/01/30 11:22:33;;;;;;;11.43;0.95;;;;;;;8.67;100.00;101777.59;5090029;28;20024;-53
2023/01/30 11:25:01;;;;;;;5.85;0.98;;;;;;;8.56;100.00;101781.25;5082823;28;20077;-51
2023/01/30 11:27:30;;;;;;;6.07;1.58;;;;;;;8.38;100.00;101780.34;5088748;28;20032;-52
2023/01/30 11:30:11;;;;;;;5.97;0.68;;;;;;;8.26;100.00;101784.94;5072665;28;20629;-54
2023/01/30 11:32:36;;;;;;;2.10;0.40;;;;;;;8.07;100.00;101791.13;5078126;28;20472;-54
2023/01/30 11:35:08;;;;;;;7.15;1.42;;;;;;;8.12;100.00;101782.78;5080576;28;20028;-52
2023/01/30 11:37:34;;;;;;;1.95;0.30;;;;;;;8.07;100.00;101786.69;5093163;28;20027;-53
2023/01/30 11:40:22;;;;;;;7.88;1.27;;;;;;;8.01;100.00;101781.97;5079674;28;20027;-53
2023/01/30 11:42:50;;;;;;;5.15;1.08;;;;;;;8.09;100.00;101762.78;5081166;28;20397;-51
2023/01/30 11:45:17;;;;;;;6.20;1.60;;;;;;;8.14;100.00;101759.69;5082326;28;20047;-53